createdAt,value
2023-02-05T00:06:31.398Z,1033.07
2023-02-05T00:16:31.736Z,1033.02
2023-02-05T00:26:31.765Z,1032.97
2023-02-05T00:36:32.079Z,1032.99
2023-02-05T00:46:32.102Z,1032.97
2023-02-05T00:56:32.492Z,1032.99
2023-02-05T01:06:32.508Z,1033.10
2023-02-05T01:16:32.857Z,1033.09
2023-02-05T01:26:32.918Z,1033.06
2023-02-05T01:36:33.204Z,1033.02
2023-02-05T01:46:33.235Z,1033.08
2023-02-05T01:56:33.361Z,1033.08
2023-02-05T02:06:33.398Z,1032.90
2023-02-05T02:16:33.732Z,1032.85
2023-02-05T02:26:33.833Z,1032.75
2023-02-05T02:36:33.905Z,1032.61
2023-02-05T02:46:34.144Z,1032.62
2023-02-05T02:56:34.496Z,1032.65
2023-02-05T03:06:34.549Z,1032.50
2023-02-05T03:16:35.822Z,1032.42
2023-02-05T03:26:34.890Z,1032.21
2023-02-05T03:36:35.235Z,1031.92
2023-02-05T03:46:35.288Z,1031.87
2023-02-05T03:56:35.584Z,1032.01
2023-02-05T04:06:35.620Z,1031.95
2023-02-05T04:16:35.908Z,1032.01
2023-02-05T04:26:35.978Z,1031.95
2023-02-05T04:36:36.221Z,1031.97
2023-02-05T04:46:36.442Z,1032.02
2023-02-05T04:56:36.811Z,1031.87
2023-02-05T05:06:36.845Z,1032.06
2023-02-05T05:16:37.175Z,1032.10
2023-02-05T05:26:37.251Z,1032.00
2023-02-05T05:36:40.620Z,1031.93
2023-02-05T05:46:37.513Z,1032.02
2023-02-05T05:56:37.552Z,1032.10
2023-02-05T06:06:37.785Z,1032.06
2023-02-05T06:16:38.024Z,1032.11
2023-02-05T06:26:38.249Z,1032.21
2023-02-05T06:36:38.536Z,1032.49
2023-02-05T06:46:38.965Z,1032.57
2023-02-05T06:56:39.023Z,1032.57
2023-02-05T07:06:39.298Z,1032.72
2023-02-05T07:16:39.536Z,1032.84
2023-02-05T07:26:39.764Z,1032.70
2023-02-05T07:36:40.094Z,1032.51
2023-02-05T07:46:40.169Z,1032.49
2023-02-05T07:56:40.647Z,1032.60
2023-02-05T08:06:40.494Z,1032.59
2023-02-05T08:16:40.813Z,1032.97
2023-02-05T08:26:40.850Z,1032.95
2023-02-05T08:36:41.074Z,1032.80
2023-02-05T08:46:49.884Z,1032.76
2023-02-05T08:56:42.406Z,1032.80
2023-02-05T09:06:41.738Z,1032.61
2023-02-05T09:16:41.808Z,1032.49
2023-02-05T09:26:42.051Z,1032.48
2023-02-05T09:36:42.318Z,1032.38
2023-02-05T09:46:42.590Z,1032.21
2023-02-05T09:56:42.615Z,1032.17
2023-02-05T10:06:42.949Z,1031.89
2023-02-05T10:16:42.976Z,1031.64
2023-02-05T10:26:43.321Z,1031.43
2023-02-05T10:36:43.388Z,1031.12
2023-02-05T10:46:43.726Z,1031.04
2023-02-05T10:56:43.768Z,1030.81
2023-02-05T11:06:44.103Z,1030.67
2023-02-05T11:16:44.143Z,1030.60
2023-02-05T11:26:44.430Z,1030.51
2023-02-05T11:36:44.617Z,1030.38
2023-02-05T11:46:44.983Z,1030.37
2023-02-05T11:56:44.897Z,1030.36
2023-02-05T12:06:47.143Z,1030.43
2023-02-05T12:16:45.389Z,1030.46
2023-02-05T12:26:45.656Z,1030.41
2023-02-05T12:36:45.893Z,1030.49
2023-02-05T12:46:46.239Z,1030.26
2023-02-05T12:56:46.304Z,1030.21
2023-02-05T13:06:46.575Z,1030.19
2023-02-05T13:16:46.661Z,1030.05
2023-02-05T13:26:46.803Z,1029.97
2023-02-05T13:36:47.121Z,1029.78
2023-02-05T13:46:47.257Z,1029.54
2023-02-05T13:56:47.287Z,1029.52
2023-02-05T14:06:47.602Z,1029.47
2023-02-05T14:16:50.064Z,1029.43
2023-02-05T14:26:48.760Z,1029.38
2023-02-05T14:36:48.340Z,1029.32
2023-02-05T14:46:48.524Z,1029.24
2023-02-05T14:56:48.407Z,1029.21
2023-02-05T15:06:48.802Z,1029.22
2023-02-05T15:16:48.841Z,1029.24
2023-02-05T15:26:49.194Z,1029.14
2023-02-05T15:36:49.295Z,1029.26
2023-02-05T15:46:49.635Z,1029.24
2023-02-05T15:56:51.473Z,1029.22
2023-02-05T16:06:50.193Z,1029.23
2023-02-05T16:16:50.162Z,1029.16
2023-02-05T16:26:50.426Z,1029.16
2023-02-05T16:36:50.350Z,1029.38
2023-02-05T16:46:52.853Z,1029.33
2023-02-05T16:56:50.992Z,1029.42
2023-02-05T17:06:50.941Z,1029.50
2023-02-05T17:16:51.258Z,1029.59
2023-02-05T17:26:51.482Z,1029.63
2023-02-05T17:36:51.888Z,1029.62
2023-02-05T17:46:55.461Z,1029.64
2023-02-05T17:56:51.856Z,1029.64
2023-02-05T18:06:52.161Z,1029.79
2023-02-05T18:16:52.427Z,1029.68
2023-02-05T18:26:52.668Z,1029.71
2023-02-05T18:36:52.711Z,1029.71
2023-02-05T18:46:54.684Z,1029.79
2023-02-05T18:56:52.827Z,1029.76
2023-02-05T19:06:53.406Z,1029.79
2023-02-05T19:16:53.387Z,1029.88
2023-02-05T19:26:53.602Z,1029.95
2023-02-05T19:36:53.747Z,1030.04
2023-02-05T19:46:53.696Z,1029.97
2023-02-05T19:56:54.023Z,1030.02
2023-02-05T20:06:55.228Z,1030.11
2023-02-05T20:16:54.402Z,1030.00
2023-02-05T20:26:54.651Z,1029.96
2023-02-05T20:36:54.761Z,1029.99
2023-02-05T20:46:58.710Z,1030.12
2023-02-05T20:56:55.081Z,1030.28
2023-02-05T21:06:56.088Z,1030.50
2023-02-05T21:16:55.198Z,1030.52
2023-02-05T21:26:55.376Z,1030.80
2023-02-05T21:36:55.445Z,1031.09
2023-02-05T21:46:57.855Z,1031.07
2023-02-05T21:56:55.928Z,1031.29
2023-02-05T22:06:56.183Z,1031.42
2023-02-05T22:16:56.418Z,1031.47
2023-02-05T22:26:56.760Z,1031.56
2023-02-05T22:36:56.799Z,1031.60
2023-02-05T22:46:57.116Z,1031.69
2023-02-05T22:56:57.152Z,1031.64
2023-02-05T23:06:57.505Z,1031.52
2023-02-05T23:16:57.523Z,1031.59
2023-02-05T23:26:57.851Z,1031.50
2023-02-05T23:36:57.900Z,1031.63
2023-02-05T23:46:58.223Z,1031.81
2023-02-05T23:56:58.275Z,1031.83
